createdAt,value
2018-07-09T00:01:00.537Z,64.60
2018-07-09T00:05:03.785Z,63.90
2018-07-09T00:09:07.048Z,63.90
2018-07-09T00:13:10.289Z,64.00
2018-07-09T00:17:13.520Z,64.20
2018-07-09T00:21:16.736Z,64.90
2018-07-09T00:25:19.959Z,65.30
2018-07-09T00:29:23.309Z,65.40
2018-07-09T00:33:26.542Z,66.10
2018-07-09T00:37:29.761Z,66.60
2018-07-09T00:45:36.060Z,67.20
2018-07-09T00:49:39.276Z,67.50
2018-07-09T00:57:45.473Z,67.30
2018-07-09T01:05:51.683Z,67.90
2018-07-09T01:09:54.896Z,68.10
2018-07-09T01:13:58.113Z,68.50
2018-07-09T01:18:01.333Z,68.70
2018-07-09T01:22:05.277Z,68.50
2018-07-09T01:26:09.191Z,68.50
2018-07-09T01:30:14.037Z,68.50
2018-07-09T01:34:17.272Z,68.60
2018-07-09T01:38:20.490Z,68.90
2018-07-09T01:46:26.669Z,69.40
2018-07-09T01:50:29.894Z,69.70
2018-07-09T01:58:36.063Z,70.40
2018-07-09T02:02:39.297Z,70.50
2018-07-09T02:10:46.355Z,70.10
2018-07-09T02:14:49.573Z,70.10
2018-07-09T02:18:52.836Z,70.00
2018-07-09T02:22:56.312Z,70.50
2018-07-09T02:26:59.614Z,70.60
2018-07-09T02:31:02.834Z,71.20
2018-07-09T02:35:06.078Z,71.10
2018-07-09T02:39:09.297Z,71.40
2018-07-09T02:43:12.530Z,71.80
2018-07-09T02:47:15.748Z,72.20
2018-07-09T02:51:18.981Z,72.10
2018-07-09T02:55:28.723Z,72.40
2018-07-09T02:59:31.933Z,72.40
2018-07-09T03:03:35.169Z,72.50
2018-07-09T03:07:38.389Z,72.60
2018-07-09T03:11:41.733Z,73.30
2018-07-09T03:19:47.910Z,74.20
2018-07-09T03:23:51.133Z,74.30
2018-07-09T03:27:54.352Z,74.50
2018-07-09T03:36:00.523Z,75.30
2018-07-09T03:40:03.748Z,75.70
2018-07-09T03:48:10.046Z,76.20
2018-07-09T03:52:13.265Z,76.40
2018-07-09T04:00:19.459Z,76.50
2018-07-09T04:04:22.697Z,76.20
2018-07-09T04:08:25.925Z,76.30
2018-07-09T04:12:29.153Z,75.80
2018-07-09T04:16:32.433Z,75.60
2018-07-09T04:20:35.651Z,75.50
2018-07-09T04:24:38.894Z,75.10
2018-07-09T04:32:45.085Z,75.70
2018-07-09T04:40:51.298Z,75.20
2018-07-09T04:44:54.525Z,75.30
2018-07-09T04:48:57.734Z,75.00
2018-07-09T04:53:00.960Z,74.40
2018-07-09T04:57:04.205Z,74.00
2018-07-09T05:01:07.505Z,73.90
2018-07-09T05:05:10.722Z,73.50
2018-07-09T05:13:16.889Z,72.40
2018-07-09T05:17:20.100Z,72.40
2018-07-09T05:21:23.332Z,72.40
2018-07-09T05:25:26.592Z,71.60
2018-07-09T05:29:29.818Z,71.70
2018-07-09T05:33:33.044Z,70.90
2018-07-09T05:41:39.229Z,70.20
2018-07-09T05:45:42.473Z,69.60
2018-07-09T05:49:45.815Z,69.00
2018-07-09T05:53:49.032Z,68.10
2018-07-09T05:57:52.266Z,67.90
2018-07-09T06:01:55.494Z,68.20
2018-07-09T06:05:58.714Z,68.10
2018-07-09T06:10:01.948Z,68.00
2018-07-09T06:14:05.454Z,66.60
2018-07-09T06:18:08.689Z,66.60
2018-07-09T06:26:14.910Z,64.30
2018-07-09T06:30:18.123Z,64.10
2018-07-09T06:34:21.386Z,63.50
2018-07-09T06:42:27.556Z,63.90
2018-07-09T06:46:30.850Z,62.00
2018-07-09T06:50:34.064Z,61.20
2018-07-09T06:54:37.297Z,59.80
2018-07-09T06:58:40.520Z,59.90
2018-07-09T07:06:46.705Z,58.70
2018-07-09T07:10:49.923Z,59.30
2018-07-09T07:14:53.132Z,57.90
2018-07-09T07:18:56.691Z,57.50
2018-07-09T07:22:59.912Z,57.60
2018-07-09T07:27:03.146Z,57.70
2018-07-09T07:35:09.332Z,55.80
2018-07-09T07:39:12.551Z,56.20
2018-07-09T07:47:18.730Z,54.60
2018-07-09T07:51:21.946Z,54.80
2018-07-09T07:55:25.185Z,54.20
2018-07-09T07:59:28.417Z,53.90
2018-07-09T08:03:31.633Z,53.20
2018-07-09T08:07:35.545Z,52.90
2018-07-09T08:11:48.562Z,52.20
2018-07-09T08:15:42.143Z,51.50
2018-07-09T08:19:45.306Z,51.80
2018-07-09T08:23:48.526Z,51.30
2018-07-09T08:27:51.747Z,50.40
2018-07-09T08:31:54.965Z,50.20
2018-07-09T08:35:58.220Z,49.80
2018-07-09T08:44:04.426Z,49.80
2018-07-09T08:48:07.653Z,48.80
2018-07-09T08:52:10.877Z,48.00
2018-07-09T08:56:14.087Z,48.20
2018-07-09T09:00:17.325Z,48.60
2018-07-09T09:04:20.546Z,48.00
2018-07-09T09:08:23.769Z,47.00
2018-07-09T09:12:27.520Z,47.20
2018-07-09T09:16:30.788Z,47.80
2018-07-09T09:20:33.973Z,47.00
2018-07-09T09:24:37.200Z,46.90
2018-07-09T09:28:40.641Z,46.30
2018-07-09T09:32:43.870Z,46.00
2018-07-09T09:36:47.132Z,45.80
2018-07-09T09:40:50.340Z,44.20
2018-07-09T09:44:53.984Z,44.80
2018-07-09T09:48:57.192Z,43.90
2018-07-09T09:53:00.417Z,44.50
2018-07-09T09:57:03.674Z,43.40
2018-07-09T10:01:07.277Z,40.80
2018-07-09T10:05:10.521Z,39.90
2018-07-09T10:09:13.846Z,41.20
2018-07-09T10:13:17.077Z,39.70
2018-07-09T10:17:20.293Z,41.50
2018-07-09T10:21:23.517Z,42.80
2018-07-09T10:25:26.764Z,43.20
2018-07-09T10:29:29.997Z,41.90
2018-07-09T10:33:33.222Z,41.80
2018-07-09T10:37:36.568Z,41.40
2018-07-09T10:41:39.812Z,40.90
2018-07-09T10:45:43.118Z,41.20
2018-07-09T10:49:47.078Z,42.70
2018-07-09T10:53:50.405Z,40.80
2018-07-09T10:57:53.717Z,38.20
2018-07-09T11:02:00.097Z,37.90
2018-07-09T11:06:03.368Z,37.60
2018-07-09T11:10:06.657Z,37.50
2018-07-09T11:14:09.864Z,36.50
2018-07-09T11:18:13.101Z,35.60
2018-07-09T11:22:16.966Z,35.70
2018-07-09T11:26:20.377Z,33.50
2018-07-09T11:30:25.784Z,35.80
2018-07-09T11:34:29.040Z,34.90
2018-07-09T11:38:32.264Z,37.40
2018-07-09T11:42:35.484Z,38.40
2018-07-09T11:46:38.738Z,41.40
2018-07-09T11:50:41.939Z,41.40
2018-07-09T11:54:45.153Z,41.00
2018-07-09T11:58:48.417Z,42.20
2018-07-09T12:02:51.628Z,41.20
2018-07-09T12:06:54.857Z,40.90
2018-07-09T12:10:58.065Z,40.70
2018-07-09T12:15:01.297Z,39.80
2018-07-09T12:23:09.769Z,36.30
2018-07-09T12:27:13.010Z,40.10
2018-07-09T12:31:16.230Z,41.30
2018-07-09T12:35:19.457Z,40.90
2018-07-09T12:39:22.803Z,43.20
2018-07-09T12:43:26.582Z,41.60
2018-07-09T12:47:30.223Z,40.60
2018-07-09T12:55:36.486Z,38.40
2018-07-09T12:59:42.325Z,35.10
2018-07-09T13:03:45.611Z,37.70
2018-07-09T13:11:52.643Z,41.10
2018-07-09T13:15:56.775Z,42.30
2018-07-09T13:20:00.694Z,43.30
2018-07-09T13:24:05.523Z,44.70
2018-07-09T13:28:08.781Z,42.30
2018-07-09T13:32:12.068Z,38.10
2018-07-09T13:36:15.959Z,41.10
2018-07-09T13:40:19.248Z,40.10
2018-07-09T13:44:22.549Z,38.90
2018-07-09T13:48:25.784Z,37.90
2018-07-09T13:52:29.018Z,38.00
2018-07-09T13:56:32.973Z,40.80
2018-07-09T14:00:36.336Z,39.10
2018-07-09T14:04:40.392Z,38.90
2018-07-09T14:08:43.611Z,39.40
2018-07-09T14:12:46.837Z,39.40
2018-07-09T14:16:53.275Z,38.60
2018-07-09T14:20:57.532Z,39.20
2018-07-09T14:25:01.182Z,40.80
2018-07-09T14:29:05.060Z,40.20
2018-07-09T14:33:08.805Z,41.20
2018-07-09T14:37:12.062Z,42.50
2018-07-09T14:41:17.202Z,41.60
2018-07-09T14:45:20.732Z,40.70
2018-07-09T14:49:23.961Z,41.90
2018-07-09T14:53:27.327Z,41.60
2018-07-09T14:57:30.985Z,42.70
2018-07-09T15:01:34.827Z,42.30
2018-07-09T15:05:38.082Z,42.20
2018-07-09T15:09:41.335Z,41.00
2018-07-09T15:13:44.669Z,40.80
2018-07-09T15:17:47.980Z,41.30
2018-07-09T15:21:51.697Z,41.30
2018-07-09T15:25:54.946Z,43.30
2018-07-09T15:29:58.240Z,43.60
2018-07-09T15:38:05.378Z,44.20
2018-07-09T15:42:08.620Z,43.40
2018-07-09T15:46:11.848Z,43.80
2018-07-09T15:50:15.080Z,44.50
2018-07-09T15:54:18.290Z,45.20
2018-07-09T15:58:21.526Z,46.60
2018-07-09T16:02:24.739Z,47.50
2018-07-09T16:06:27.974Z,46.90
2018-07-09T16:10:31.208Z,45.50
2018-07-09T16:14:34.448Z,46.90
2018-07-09T16:18:37.681Z,45.20
2018-07-09T16:22:40.913Z,45.60
2018-07-09T16:30:47.105Z,47.90
2018-07-09T16:38:53.298Z,47.90
2018-07-09T16:42:56.525Z,48.10
2018-07-09T16:46:59.792Z,48.60
2018-07-09T16:51:02.997Z,48.40
2018-07-09T16:55:06.449Z,49.30
2018-07-09T16:59:09.711Z,49.10
2018-07-09T17:03:13.000Z,49.30
2018-07-09T17:07:16.176Z,49.70
2018-07-09T17:11:19.407Z,49.60
2018-07-09T17:15:22.626Z,50.10
2018-07-09T17:19:25.862Z,49.90
2018-07-09T17:23:29.084Z,49.40
2018-07-09T17:27:32.316Z,49.90
2018-07-09T17:31:35.612Z,50.20
2018-07-09T17:35:38.848Z,49.30
2018-07-09T17:39:42.083Z,49.00
2018-07-09T17:47:48.390Z,49.70
2018-07-09T17:55:54.565Z,50.20
2018-07-09T17:59:57.896Z,51.70
2018-07-09T18:04:01.112Z,52.70
2018-07-09T18:08:04.367Z,51.60
2018-07-09T18:12:07.582Z,51.40
2018-07-09T18:16:13.152Z,51.80
2018-07-09T18:24:20.085Z,51.70
2018-07-09T18:28:23.325Z,52.30
2018-07-09T18:32:26.993Z,52.20
2018-07-09T18:36:30.696Z,53.30
2018-07-09T18:40:33.975Z,53.30
2018-07-09T18:44:39.421Z,54.00
2018-07-09T18:48:42.818Z,54.40
2018-07-09T18:52:45.913Z,55.00
2018-07-09T18:56:49.968Z,55.80
2018-07-09T19:00:54.549Z,56.40
2018-07-09T19:04:58.118Z,56.70
2018-07-09T19:09:03.024Z,57.40
2018-07-09T19:13:06.278Z,57.70
2018-07-09T19:17:53.093Z,58.40
2018-07-09T19:22:01.512Z,58.80
2018-07-09T19:26:05.360Z,59.60
2018-07-09T19:38:13.274Z,61.70
2018-07-09T19:42:15.796Z,61.20
2018-07-09T19:50:20.546Z,61.50
2018-07-09T19:54:22.784Z,62.10
2018-07-09T19:58:25.055Z,62.60
2018-07-09T20:06:32.535Z,63.60
2018-07-09T20:10:40.390Z,62.20
2018-07-09T20:14:48.109Z,62.20
2018-07-09T20:18:51.850Z,63.00
2018-07-09T20:22:54.486Z,63.60
2018-07-09T20:26:57.235Z,63.80
2018-07-09T20:30:59.628Z,64.20
2018-07-09T20:35:01.845Z,64.20
2018-07-09T20:39:05.193Z,64.90
2018-07-09T20:47:12.817Z,65.40
2018-07-09T20:51:15.482Z,65.90
2018-07-09T20:55:17.668Z,66.40
2018-07-09T20:59:20.418Z,66.90
2018-07-09T21:03:22.752Z,67.20
2018-07-09T21:07:24.956Z,67.30
2018-07-09T21:11:28.674Z,67.90
2018-07-09T21:15:31.127Z,68.40
2018-07-09T21:19:34.056Z,68.90
2018-07-09T21:23:36.258Z,69.30
2018-07-09T21:27:38.454Z,69.70
2018-07-09T21:31:40.633Z,69.20
2018-07-09T21:35:42.826Z,69.20
2018-07-09T21:39:45.026Z,69.40
2018-07-09T21:43:47.709Z,70.00
2018-07-09T21:47:59.212Z,70.80
2018-07-09T21:51:52.771Z,70.60
2018-07-09T21:55:55.381Z,70.50
2018-07-09T21:59:57.573Z,70.90
2018-07-09T22:08:03.644Z,72.00
2018-07-09T22:12:06.129Z,71.30
2018-07-09T22:16:08.731Z,71.10
2018-07-09T22:20:10.989Z,71.00
2018-07-09T22:24:13.177Z,71.00
2018-07-09T22:28:16.184Z,71.30
2018-07-09T22:32:20.394Z,70.70
2018-07-09T22:36:24.586Z,67.80
2018-07-09T22:40:27.834Z,68.00
2018-07-09T22:44:31.174Z,68.40
2018-07-09T22:48:35.469Z,68.50
2018-07-09T22:52:38.716Z,66.70
2018-07-09T23:00:45.638Z,66.50
2018-07-09T23:04:49.006Z,66.00
2018-07-09T23:13:11.993Z,66.60
2018-07-09T23:17:26.572Z,65.60
2018-07-09T23:21:42.573Z,65.70
2018-07-09T23:25:44.773Z,65.90
2018-07-09T23:29:46.966Z,65.80
2018-07-09T23:33:49.262Z,65.30
2018-07-09T23:37:51.457Z,65.80
2018-07-09T23:41:53.650Z,66.00
2018-07-09T23:45:55.841Z,65.90
2018-07-09T23:49:58.044Z,65.80
2018-07-09T23:54:00.243Z,65.50
2018-07-09T23:58:14.764Z,65.90
